Windhoek, Namibia
Current Conditions -  °F | °C
As of 10:00 AM on Saturday 20 Dec 2014 (Local Time) from FYWH Reporting Station
Few Clouds Few Clouds  
Wind Chill: 82°   Ceiling: Unl
Heat Index: 82°   Visibility: 6mi
Dew Point: 41°   Wind: 7mph
Humidity: 23%   Direction: 160°SSE
Pressure: 30.24"   Gusts: NA
Location:  22.56°S, 17.09°E
Report Text: FYWH 200900Z 16006KT 9999 FEW050 28/05 Q1024 NOSIG
Loading
Personal Weather Stations






























Interactive Weather Map New forecast layout! Learn more

10-Day Weather Forecast

Advertisements
Track Severe Weather on mobile